Ana Sayfa
METAR-TAF:

METAR-TAF

Havaalanları :

Port Macquarie, Avustralya

Enlem: 31-26-09S, Boylam: 152-51-48E, yükseklik: 5 m

Güncel hava durumu gözlemi

Rapor saat 22:59 UTC de 18 saat ve 6 dakika önce yapıldı.
Rüzgar güney/güneydoğudan 7 kt, güneydoğu ve güneybatı arasında değişken
Sıcaklık 24°C
Nem 22%
Basınç 1016 hPa
Görüş mesafesi 10 km veya daha fazla
1800 ft yükseklikte parçalı bulutlu
3000 ft yükseklikte parçalı bulutlu
3600 ft yükseklikte parçalı çok bulutlu

METAR: YPMQ 132259Z AUTO 15007KT 140V230 9999 // SCT018 SCT030 BKN036 24/01 Q1016

Saat: 04:05 (17:05 UTC)


TAF: eksik

4.000'den fazla havaalanı için hava durumu gözlemleri ve tahminleri (METAR ve TAF raporları).

Kullanılabilir istasyonlar harita üzerinde sarı ve kırmızı noktalarla gösterilir.

İstasyonun adını görmek için fareyi noktanın üzerinde gezdirin.

Sonrasında hava gözlem ve tahminlerini görmek için tıklayın.

Haritayı değiştirmek için: yaklaştırmak için siyah artı işaretli yeşil düğmeye ve uzaklaştırmak için de eksi işaretli düğmeye hızla tıklayın; bitişik haritalar için yeşil okları kullanın.


METAR-TAF: